Time;durP1;ratioP1;P1;durP2;ratioP2;P2;SDS_P1;SDS_P2;PMS_P1;PMS_P2;Temp;Humidity;BMP_temperature;BMP_pressure;BME280_temperature;BME280_humidity;BME280_pressure;Samples;Min_cycle;Max_cycle;Signal;HPM_P1;HPM_P2
2021/05/05 00:01:30;;;;;;;7.15;4.22;;;10.90;50.60;;;;;;5034583;28;20097;-65
2021/05/05 00:03:56;;;;;;;5.07;3.80;;;10.90;50.60;;;;;;5034729;28;20366;-65
2021/05/05 00:06:21;;;;;;;8.65;4.10;;;10.90;50.60;;;;;;5034948;28;20505;-65
2021/05/05 00:08:48;;;;;;;5.57;3.58;;;10.90;50.80;;;;;;5034737;28;20049;-65
2021/05/05 00:11:14;;;;;;;4.82;3.67;;;10.90;50.80;;;;;;5035003;28;20083;-65
2021/05/05 00:13:40;;;;;;;4.55;3.60;;;10.90;50.80;;;;;;5034138;28;20029;-65
2021/05/05 00:16:07;;;;;;;3.92;3.47;;;10.90;50.50;;;;;;5030572;28;20539;-65
2021/05/05 00:18:33;;;;;;;4.38;3.47;;;10.90;50.50;;;;;;5044865;28;20033;-65
2021/05/05 00:20:59;;;;;;;5.60;4.22;;;10.90;50.50;;;;;;5037623;28;20024;-65
2021/05/05 00:23:24;;;;;;;7.30;5.32;;;10.90;50.50;;;;;;5014840;28;20469;-65
2021/05/05 00:25:50;;;;;;;7.32;4.85;;;10.90;50.50;;;;;;5023543;28;20064;-65
2021/05/05 00:28:16;;;;;;;6.53;4.68;;;10.90;50.30;;;;;;5034371;28;20026;-65
2021/05/05 00:30:41;;;;;;;7.50;4.88;;;10.80;50.20;;;;;;5034442;28;20098;-65
2021/05/05 00:33:07;;;;;;;6.10;5.20;;;10.80;50.40;;;;;;5034634;28;20025;-65
2021/05/05 00:35:33;;;;;;;6.22;5.22;;;10.80;50.40;;;;;;5034443;28;20056;-65
2021/05/05 00:37:59;;;;;;;8.52;5.60;;;10.80;50.40;;;;;;5034187;28;20033;-65
2021/05/05 00:40:25;;;;;;;10.73;5.93;;;10.80;50.30;;;;;;5034244;28;20025;-65
2021/05/05 00:42:51;;;;;;;9.35;5.43;;;10.80;50.40;;;;;;5034374;28;20362;-65
2021/05/05 00:45:17;;;;;;;6.85;5.32;;;10.80;50.40;;;;;;5034050;28;20029;-65
2021/05/05 00:47:43;;;;;;;6.47;5.20;;;10.80;50.50;;;;;;5034010;28;20465;-65
2021/05/05 00:50:15;;;;;;;6.38;5.28;;;10.80;50.60;;;;;;5034186;28;20354;-65
2021/05/05 00:52:41;;;;;;;5.57;4.80;;;10.80;50.60;;;;;;5033865;28;20045;-65
2021/05/05 00:55:08;;;;;;;5.78;3.97;;;10.80;50.60;;;;;;5033971;28;20032;-65
2021/05/05 00:57:35;;;;;;;5.72;3.97;;;10.80;50.60;;;;;;5034104;28;20029;-65
2021/05/05 01:00:01;;;;;;;4.55;3.83;;;10.90;50.80;;;;;;5033678;28;20049;-65
2021/05/05 01:02:27;;;;;;;5.07;3.92;;;10.90;50.80;;;;;;5033843;28;20053;-65
2021/05/05 01:04:52;;;;;;;5.00;3.92;;;10.80;50.60;;;;;;5033795;28;20036;-65
2021/05/05 01:07:18;;;;;;;6.50;3.60;;;10.80;50.70;;;;;;5033724;28;20096;-65
2021/05/05 01:09:46;;;;;;;4.97;3.67;;;10.90;50.90;;;;;;5034011;28;20025;-65
2021/05/05 01:12:12;;;;;;;5.38;4.03;;;10.90;50.80;;;;;;5033492;28;20032;-65
2021/05/05 01:14:38;;;;;;;6.45;5.28;;;10.90;51.60;;;;;;5032787;28;20108;-65
2021/05/05 01:17:05;;;;;;;7.65;6.00;;;10.90;51.00;;;;;;5013895;28;20557;-65
2021/05/05 01:19:31;;;;;;;9.55;6.40;;;10.90;51.00;;;;;;5033726;28;20461;-65
2021/05/05 01:21:57;;;;;;;9.65;6.88;;;10.90;51.20;;;;;;5033306;28;20025;-65
2021/05/05 01:24:23;;;;;;;8.30;6.97;;;10.90;51.20;;;;;;5033390;28;20029;-65
2021/05/05 01:26:49;;;;;;;8.10;5.00;;;10.80;51.20;;;;;;5033304;28;20017;-65
2021/05/05 01:29:14;;;;;;;7.75;6.35;;;10.80;51.20;;;;;;5033345;28;20032;-65
2021/05/05 01:31:40;;;;;;;9.02;6.55;;;10.80;51.20;;;;;;5033364;28;20496;-65
2021/05/05 01:34:06;;;;;;;9.63;7.30;;;10.80;51.30;;;;;;5033134;28;20029;-65
2021/05/05 01:36:34;;;;;;;9.82;6.72;;;10.80;51.40;;;;;;5033247;28;20025;-65
2021/05/05 01:39:00;;;;;;;7.35;5.80;;;10.80;51.30;;;;;;5033214;28;20025;-65
2021/05/05 01:41:26;;;;;;;7.32;5.78;;;10.80;51.50;;;;;;5033033;28;20033;-65
2021/05/05 01:43:52;;;;;;;6.65;5.20;;;10.80;51.60;;;;;;5033426;28;20025;-65
2021/05/05 01:46:21;;;;;;;5.65;4.93;;;10.80;51.60;;;;;;5033059;28;20030;-65
2021/05/05 01:48:47;;;;;;;5.50;4.63;;;10.90;51.50;;;;;;5033364;28;20025;-65
2021/05/05 01:51:14;;;;;;;5.07;4.35;;;10.90;51.60;;;;;;5033322;28;20048;-65
2021/05/05 01:53:40;;;;;;;4.63;3.85;;;10.80;51.50;;;;;;5032908;28;20504;-65
2021/05/05 01:56:06;;;;;;;6.88;5.50;;;10.80;51.60;;;;;;5033065;28;20033;-65
2021/05/05 01:58:36;;;;;;;6.35;4.70;;;10.80;51.80;;;;;;5032933;28;20021;-65
2021/05/05 02:01:04;;;;;;;5.40;4.63;;;10.70;51.80;;;;;;5015219;28;20021;-65
2021/05/05 02:03:29;;;;;;;6.63;4.43;;;10.70;51.90;;;;;;5032917;28;20465;-65
2021/05/05 02:05:55;;;;;;;5.97;4.20;;;10.70;51.80;;;;;;5032788;28;20029;-65
2021/05/05 02:08:21;;;;;;;6.68;4.47;;;10.70;52.10;;;;;;5032915;28;20461;-65
2021/05/05 02:10:47;;;;;;;7.75;4.28;;;10.70;52.10;;;;;;5032828;28;20029;-65
2021/05/05 02:13:13;;;;;;;6.05;4.13;;;10.70;52.20;;;;;;5032936;28;20033;-65
2021/05/05 02:15:39;;;;;;;6.47;4.70;;;10.60;52.30;;;;;;5029183;28;20440;-65
2021/05/05 02:18:09;;;;;;;8.73;4.95;;;10.60;52.60;;;;;;5040588;28;20116;-65
2021/05/05 02:20:35;;;;;;;6.28;4.50;;;10.60;52.60;;;;;;5052958;28;20108;-65
2021/05/05 02:23:01;;;;;;;8.07;4.53;;;10.60;52.80;;;;;;5013644;28;20143;-65
2021/05/05 02:25:27;;;;;;;5.78;4.45;;;10.60;52.90;;;;;;5014310;28;20136;-65
2021/05/05 02:27:53;;;;;;;5.47;4.53;;;10.60;53.10;;;;;;5016913;28;20115;-65
2021/05/05 02:30:20;;;;;;;7.25;4.63;;;10.60;53.30;;;;;;5016883;28;20026;-65
2021/05/05 02:32:47;;;;;;;5.28;4.30;;;10.60;53.30;;;;;;4999550;28;20018;-65
2021/05/05 02:35:14;;;;;;;7.55;4.82;;;10.70;53.60;;;;;;5016891;28;20045;-65
2021/05/05 02:37:39;;;;;;;5.80;4.63;;;10.70;53.60;;;;;;5016797;28;20029;-65
2021/05/05 02:40:07;;;;;;;5.32;4.45;;;10.70;53.80;;;;;;5016816;28;20022;-65
2021/05/05 02:42:33;;;;;;;6.60;5.18;;;10.70;53.80;;;;;;5016977;28;20076;-65
2021/05/05 02:45:00;;;;;;;10.80;5.35;;;10.80;53.90;;;;;;5016640;28;20022;-65
2021/05/05 02:47:25;;;;;;;6.55;5.18;;;10.80;54.10;;;;;;5016597;28;20044;-65
2021/05/05 02:49:51;;;;;;;6.15;5.10;;;10.90;54.30;;;;;;5016555;28;20100;-65
2021/05/05 02:52:17;;;;;;;7.70;5.32;;;10.90;54.30;;;;;;5016111;28;20058;-65
2021/05/05 02:54:44;;;;;;;6.38;4.95;;;11.00;54.50;;;;;;5016535;28;20100;-65
2021/05/05 02:57:09;;;;;;;6.30;4.90;;;11.00;54.50;;;;;;5016368;28;20534;-65
2021/05/05 02:59:35;;;;;;;7.60;4.30;;;11.10;54.60;;;;;;5016658;28;20026;-65
2021/05/05 03:02:01;;;;;;;7.47;4.90;;;11.20;54.50;;;;;;5016148;28;20037;-65
2021/05/05 03:04:26;;;;;;;6.30;4.80;;;11.30;54.50;;;;;;5016581;28;20068;-65
2021/05/05 03:06:53;;;;;;;8.07;5.28;;;11.40;54.60;;;;;;5016263;28;20029;-65
2021/05/05 03:09:24;;;;;;;7.22;4.85;;;11.50;54.40;;;;;;4998628;28;20486;-65
2021/05/05 03:11:51;;;;;;;6.18;4.95;;;11.60;54.40;;;;;;5016242;28;20030;-66
2021/05/05 03:14:17;;;;;;;6.03;4.78;;;11.70;54.40;;;;;;5016229;28;20061;-66
2021/05/05 03:16:42;;;;;;;7.72;5.53;;;11.80;54.40;;;;;;5032623;28;20033;-65
2021/05/05 03:19:08;;;;;;;12.85;6.38;;;11.90;54.40;;;;;;5019141;28;20524;-66
2021/05/05 03:21:37;;;;;;;7.05;6.18;;;11.90;54.30;;;;;;5015921;28;20164;-66
2021/05/05 03:24:03;;;;;;;8.90;6.90;;;12.00;54.30;;;;;;5016034;28;20030;-66
2021/05/05 03:26:28;;;;;;;8.30;6.80;;;12.00;54.20;;;;;;5015897;28;20029;-65
2021/05/05 03:28:54;;;;;;;8.70;7.43;;;12.00;54.30;;;;;;5015875;28;20477;-65
2021/05/05 03:31:20;;;;;;;10.35;7.97;;;12.10;54.50;;;;;;5016095;28;20054;-65
2021/05/05 03:33:45;;;;;;;7.72;6.65;;;12.20;54.50;;;;;;5015771;28;20107;-66
2021/05/05 03:36:11;;;;;;;8.90;6.97;;;12.30;54.90;;;;;;5015402;28;20486;-65
2021/05/05 03:38:37;;;;;;;10.20;7.63;;;12.50;55.10;;;;;;5015049;28;20040;-66
2021/05/05 03:41:02;;;;;;;11.38;7.03;;;12.70;55.20;;;;;;5016195;28;20030;-66
2021/05/05 03:43:28;;;;;;;11.05;7.88;;;12.90;55.70;;;;;;5015751;28;20473;-66
2021/05/05 03:45:54;;;;;;;11.02;7.75;;;13.20;55.70;;;;;;5015376;28;20028;-66
2021/05/05 03:48:23;;;;;;;11.73;8.98;;;13.50;56.10;;;;;;5015414;28;20096;-66
2021/05/05 03:50:49;;;;;;;10.35;6.95;;;13.80;56.20;;;;;;5015336;28;20038;-66
2021/05/05 03:53:14;;;;;;;10.07;7.55;;;14.20;56.10;;;;;;5026929;28;20053;-66
2021/05/05 03:55:40;;;;;;;7.22;5.95;;;14.60;55.70;;;;;;5035100;28;20029;-66
2021/05/05 03:58:06;;;;;;;8.00;5.18;;;15.10;55.50;;;;;;5034932;28;20032;-66
2021/05/05 04:00:31;;;;;;;9.65;5.55;;;15.60;54.70;;;;;;5035228;28;20029;-66
2021/05/05 04:02:57;;;;;;;6.00;4.47;;;16.30;53.80;;;;;;5034900;28;20112;-66
2021/05/05 04:05:23;;;;;;;7.22;4.53;;;17.00;52.40;;;;;;5034965;28;20018;-66
2021/05/05 04:07:48;;;;;;;5.18;4.10;;;17.80;51.30;;;;;;5034909;28;20026;-66
2021/05/05 04:10:14;;;;;;;4.53;3.85;;;18.60;49.90;;;;;;5034795;28;20021;-66
2021/05/05 04:12:40;;;;;;;7.45;4.38;;;19.40;48.60;;;;;;5034881;28;20045;-66
2021/05/05 04:15:07;;;;;;;4.93;3.83;;;20.10;47.20;;;;;;5031205;28;20018;-66
2021/05/05 04:17:33;;;;;;;6.22;3.88;;;20.70;46.30;;;;;;5025630;28;20040;-66
2021/05/05 04:19:58;;;;;;;6.40;3.90;;;21.20;45.40;;;;;;5048380;28;20373;-66
2021/05/05 04:22:25;;;;;;;4.43;3.53;;;21.60;44.60;;;;;;5034598;28;20029;-66
2021/05/05 04:24:51;;;;;;;6.15;3.63;;;21.90;43.80;;;;;;5016744;28;20428;-66
2021/05/05 04:27:18;;;;;;;4.05;3.45;;;22.10;43.70;;;;;;5034556;28;20049;-66
2021/05/05 04:29:44;;;;;;;5.40;3.10;;;22.40;43.40;;;;;;5034415;28;20025;-66
2021/05/05 04:32:11;;;;;;;7.15;4.88;;;22.90;43.20;;;;;;5034376;28;20025;-66
2021/05/05 04:34:37;;;;;;;8.57;5.63;;;23.40;42.30;;;;;;5034446;28;20033;-66
2021/05/05 04:37:06;;;;;;;10.32;5.82;;;23.80;41.80;;;;;;5034289;28;20083;-66
2021/05/05 04:39:32;;;;;;;22.15;10.32;;;24.00;41.40;;;;;;5034543;28;20385;-66
2021/05/05 04:41:57;;;;;;;29.10;13.20;;;24.40;41.00;;;;;;5034067;28;20017;-66
2021/05/05 04:44:23;;;;;;;33.63;15.05;;;24.70;40.40;;;;;;5034163;28;20078;-66
2021/05/05 04:46:49;;;;;;;32.42;15.48;;;25.00;40.10;;;;;;5034049;28;20067;-66
2021/05/05 04:49:14;;;;;;;29.42;13.98;;;25.30;39.80;;;;;;5033975;28;20022;-66
2021/05/05 04:51:40;;;;;;;23.17;10.13;;;25.60;39.40;;;;;;5034314;28;20405;-66
2021/05/05 04:54:07;;;;;;;11.50;5.82;;;25.80;39.10;;;;;;5033737;28;20165;-66
2021/05/05 04:56:34;;;;;;;10.35;5.75;;;25.90;38.90;;;;;;5033626;28;20056;-66
2021/05/05 04:59:00;;;;;;;12.88;6.18;;;25.90;38.60;;;;;;5033936;28;20056;-66
2021/05/05 05:01:25;;;;;;;8.32;5.10;;;26.10;38.70;;;;;;5033561;28;20030;-66
2021/05/05 05:03:51;;;;;;;6.90;4.65;;;26.40;38.60;;;;;;5033804;28;20032;-66
2021/05/05 05:06:17;;;;;;;7.53;4.53;;;26.50;38.20;;;;;;5033638;28;20025;-66
2021/05/05 05:08:42;;;;;;;7.68;4.15;;;26.50;38.00;;;;;;5033954;28;20025;-66
2021/05/05 05:11:08;;;;;;;6.90;4.22;;;26.20;38.00;;;;;;5033563;28;20064;-66
2021/05/05 05:13:34;;;;;;;6.28;3.63;;;25.90;38.10;;;;;;5033833;28;20029;-66
2021/05/05 05:15:59;;;;;;;5.38;3.42;;;25.70;38.40;;;;;;5022583;28;20037;-66
2021/05/05 05:18:25;;;;;;;5.95;3.40;;;25.50;38.90;;;;;;5024254;28;20108;-66
2021/05/05 05:20:51;;;;;;;4.75;3.20;;;25.40;38.70;;;;;;5032825;28;20021;-66
2021/05/05 05:23:17;;;;;;;5.25;2.83;;;25.50;38.80;;;;;;5033438;28;20028;-66
2021/05/05 05:25:43;;;;;;;3.38;2.97;;;25.60;38.30;;;;;;5033120;28;20025;-66
2021/05/05 05:28:09;;;;;;;6.63;3.78;;;25.50;38.00;;;;;;5033385;28;20052;-66
2021/05/05 05:30:34;;;;;;;4.38;2.78;;;25.00;38.30;;;;;;5026808;28;20108;-60
2021/05/05 05:33:00;;;;;;;4.03;3.28;;;24.40;38.90;;;;;;5033164;28;20428;-60
2021/05/05 05:35:26;;;;;;;4.43;2.90;;;23.70;39.50;;;;;;5033118;28;20025;-60
2021/05/05 05:37:52;;;;;;;6.97;3.40;;;23.00;40.20;;;;;;5016506;28;20040;-60
2021/05/05 05:40:17;;;;;;;4.25;2.85;;;22.40;41.00;;;;;;5013320;28;20370;-60
2021/05/05 05:42:44;;;;;;;4.53;3.40;;;21.70;41.60;;;;;;5022349;28;20033;-60
2021/05/05 05:45:11;;;;;;;7.18;3.72;;;21.10;42.40;;;;;;5024871;28;20040;-60
2021/05/05 05:47:38;;;;;;;4.50;3.55;;;20.70;43.20;;;;;;5019409;28;20492;-60
2021/05/05 05:50:04;;;;;;;4.10;2.97;;;20.30;43.80;;;;;;5020727;28;20022;-61
2021/05/05 05:52:30;;;;;;;7.13;4.05;;;20.00;44.30;;;;;;5017459;28;20092;-62
2021/05/05 05:54:55;;;;;;;4.80;3.33;;;19.70;44.50;;;;;;5026727;28;20441;-62
2021/05/05 05:57:21;;;;;;;5.88;3.58;;;19.40;44.70;;;;;;5016339;28;20500;-62
2021/05/05 05:59:46;;;;;;;7.15;3.92;;;19.20;45.10;;;;;;5022687;28;20053;-62
2021/05/05 06:02:12;;;;;;;9.35;4.22;;;19.00;45.30;;;;;;5020350;28;20026;-62
2021/05/05 06:04:38;;;;;;;10.82;5.20;;;18.80;45.80;;;;;;5025362;28;20489;-61
2021/05/05 06:07:04;;;;;;;11.25;6.15;;;18.60;46.30;;;;;;5025603;28;20116;-62
2021/05/05 06:09:29;;;;;;;15.93;7.88;;;18.40;46.80;;;;;;5028744;28;20025;-63
2021/05/05 06:11:55;;;;;;;24.00;9.48;;;18.40;47.30;;;;;;5028385;28;20034;-63
2021/05/05 06:14:21;;;;;;;24.48;10.18;;;18.40;47.40;;;;;;5034518;28;20414;-63
2021/05/05 06:16:46;;;;;;;26.65;10.90;;;18.40;47.60;;;;;;5021889;28;20037;-63
2021/05/05 06:19:12;;;;;;;28.27;11.38;;;18.40;48.00;;;;;;5022166;28;20049;-63
2021/05/05 06:21:38;;;;;;;27.23;10.93;;;18.40;48.00;;;;;;5026033;28;20029;-63
2021/05/05 06:24:04;;;;;;;25.73;10.25;;;18.40;48.00;;;;;;5025597;28;20037;-62
2021/05/05 06:26:30;;;;;;;21.60;8.75;;;18.40;48.50;;;;;;5023676;28;20108;-63
2021/05/05 06:28:55;;;;;;;21.35;9.52;;;18.40;48.30;;;;;;5011955;28;20176;-62
2021/05/05 06:31:21;;;;;;;23.77;11.25;;;18.40;48.80;;;;;;5021154;28;20025;-62
2021/05/05 06:33:47;;;;;;;18.05;8.75;;;18.40;48.80;;;;;;5022624;28;20029;-63
2021/05/05 06:36:12;;;;;;;26.17;11.07;;;18.50;48.90;;;;;;5019737;28;20477;-62
2021/05/05 06:38:38;;;;;;;28.35;11.63;;;18.50;49.30;;;;;;5024993;28;20442;-62
2021/05/05 06:41:04;;;;;;;15.55;7.15;;;18.60;49.40;;;;;;5013361;28;20065;-63
2021/05/05 06:43:30;;;;;;;20.98;9.15;;;18.70;49.50;;;;;;5016356;28;20025;-62
2021/05/05 06:45:56;;;;;;;15.38;7.22;;;18.70;49.30;;;;;;5021263;28;20120;-62
2021/05/05 06:48:22;;;;;;;11.57;5.85;;;18.70;49.50;;;;;;5020217;28;20560;-62
2021/05/05 06:50:47;;;;;;;9.95;5.60;;;18.70;50.10;;;;;;5018162;28;20503;-62
2021/05/05 06:53:14;;;;;;;9.98;5.43;;;18.70;49.50;;;;;;5023487;28;20053;-62
2021/05/05 06:55:39;;;;;;;9.70;5.78;;;18.70;49.90;;;;;;5018092;28;20091;-63
2021/05/05 06:58:05;;;;;;;14.20;6.53;;;18.70;50.00;;;;;;5021120;28;20025;-63
2021/05/05 07:00:31;;;;;;;9.95;5.20;;;18.70;50.00;;;;;;5018131;28;20048;-62
2021/05/05 07:02:56;;;;;;;9.02;4.47;;;18.70;49.90;;;;;;5020698;28;20063;-63
2021/05/05 07:05:22;;;;;;;7.60;4.43;;;18.60;49.80;;;;;;5006829;28;20033;-62
2021/05/05 07:07:48;;;;;;;6.57;4.53;;;18.60;50.00;;;;;;4996331;28;20034;-62
2021/05/05 07:10:14;;;;;;;3.50;3.17;;;18.60;50.40;;;;;;5012908;28;20129;-63
2021/05/05 07:12:40;;;;;;;4.80;3.22;;;18.60;50.40;;;;;;5018657;28;20120;-63
2021/05/05 07:15:07;;;;;;;2.95;2.67;;;18.60;50.50;;;;;;5022536;28;20026;-63
2021/05/05 07:17:32;;;;;;;3.80;3.05;;;18.60;50.30;;;;;;5018020;28;20049;-63
2021/05/05 07:19:58;;;;;;;4.88;2.90;;;18.60;50.50;;;;;;5022661;28;20100;-63
2021/05/05 07:22:24;;;;;;;4.43;2.97;;;18.60;50.80;;;;;;5019986;28;20380;-62
2021/05/05 07:24:49;;;;;;;5.70;4.00;;;18.50;50.90;;;;;;5019004;28;20635;-63
2021/05/05 07:27:16;;;;;;;6.13;3.90;;;18.50;50.90;;;;;;5021883;28;20036;-62
2021/05/05 07:29:42;;;;;;;7.65;3.67;;;18.50;51.00;;;;;;5011483;28;20128;-62
2021/05/05 07:32:08;;;;;;;7.00;3.92;;;18.50;51.20;;;;;;5015813;28;20491;-63
2021/05/05 07:34:34;;;;;;;5.25;3.58;;;18.60;51.30;;;;;;5018625;28;20107;-63
2021/05/05 07:37:07;;;;;;;8.05;4.38;;;18.60;51.20;;;;;;5021239;28;20045;-63
2021/05/05 07:40:14;;;;;;;12.02;5.65;;;18.60;51.10;;;;;;5014900;28;20042;-63
2021/05/05 07:47:59;;;;;;;12.60;5.13;;;18.80;51.10;;;;;;5021444;28;20037;-63
2021/05/05 07:50:26;;;;;;;9.10;4.53;;;18.80;51.10;;;;;;5020134;28;20069;-63
2021/05/05 07:52:51;;;;;;;5.97;3.67;;;18.90;51.40;;;;;;4998531;28;20145;-62
2021/05/05 07:55:17;;;;;;;6.05;3.25;;;19.00;51.00;;;;;;5019577;28;20039;-63
2021/05/05 07:57:43;;;;;;;5.38;3.03;;;19.10;50.90;;;;;;5019578;28;20026;-62
2021/05/05 08:00:13;;;;;;;4.47;2.90;;;19.10;50.60;;;;;;5018150;28;20558;-62
2021/05/05 08:02:39;;;;;;;8.82;2.75;;;19.20;50.50;;;;;;5017412;28;20029;-62
2021/05/05 08:05:05;;;;;;;3.00;2.28;;;19.20;50.40;;;;;;5015402;28;20057;-63
2021/05/05 08:07:31;;;;;;;2.88;2.20;;;19.30;50.40;;;;;;5016398;28;20032;-63
2021/05/05 08:09:56;;;;;;;5.63;2.40;;;19.30;50.40;;;;;;5023784;28;20386;-63
2021/05/05 08:12:22;;;;;;;3.60;2.63;;;19.40;50.00;;;;;;5024371;28;20037;-63
2021/05/05 08:14:51;;;;;;;13.23;3.60;;;19.50;50.10;;;;;;5021820;28;20033;-62
2021/05/05 08:17:17;;;;;;;6.88;3.70;;;19.60;49.80;;;;;;5017609;28;20424;-63
2021/05/05 08:19:43;;;;;;;29.17;6.57;;;19.60;49.80;;;;;;5012841;28;20478;-62
2021/05/05 08:22:09;;;;;;;7.20;3.33;;;19.70;49.70;;;;;;5020317;28;21425;-62
2021/05/05 08:24:34;;;;;;;5.63;2.72;;;19.80;49.70;;;;;;5021853;28;20033;-62
2021/05/05 08:27:00;;;;;;;7.68;2.85;;;20.00;49.40;;;;;;5018970;28;20033;-62
2021/05/05 08:29:28;;;;;;;8.50;3.83;;;20.00;49.10;;;;;;5022407;28;20029;-63
2021/05/05 08:31:55;;;;;;;4.63;3.03;;;20.00;48.80;;;;;;5018986;28;20076;-63
2021/05/05 08:34:22;;;;;;;5.32;3.10;;;20.10;48.80;;;;;;5021479;28;20068;-62
2021/05/05 08:36:47;;;;;;;6.45;2.80;;;20.10;48.70;;;;;;5024408;28;20026;-62
2021/05/05 08:39:13;;;;;;;25.45;6.10;;;20.10;48.90;;;;;;5020919;28;20033;-62
2021/05/05 08:41:39;;;;;;;4.45;2.60;;;20.10;49.10;;;;;;5020001;28;20448;-62
2021/05/05 08:44:10;;;;;;;6.22;2.67;;;20.10;48.70;;;;;;5019970;28;20030;-63
2021/05/05 08:46:38;;;;;;;11.88;4.82;;;20.20;48.90;;;;;;5019166;28;20033;-62
2021/05/05 08:49:04;;;;;;;7.45;3.70;;;20.30;48.90;;;;;;5016267;28;20021;-63
2021/05/05 08:51:30;;;;;;;7.97;3.65;;;20.30;48.40;;;;;;5016975;28;20545;-63
2021/05/05 08:53:56;;;;;;;3.47;2.35;;;20.40;48.50;;;;;;5019457;28;20083;-63
2021/05/05 08:56:21;;;;;;;4.85;2.40;;;20.40;48.60;;;;;;5020404;28;20029;-63
2021/05/05 08:58:47;;;;;;;6.03;2.42;;;20.50;48.30;;;;;;5011575;28;20418;-63
2021/05/05 09:01:13;;;;;;;7.07;2.33;;;20.50;48.40;;;;;;5017293;28;20523;-62
2021/05/05 09:03:40;;;;;;;5.25;2.25;;;20.50;48.30;;;;;;5010938;28;20079;-62
2021/05/05 09:06:06;;;;;;;4.93;2.50;;;20.60;47.80;;;;;;5020846;28;20110;-62
2021/05/05 09:08:34;;;;;;;8.27;2.60;;;20.70;47.90;;;;;;5019993;28;20030;-62
2021/05/05 09:11:04;;;;;;;9.43;2.60;;;20.70;47.80;;;;;;5011167;28;20080;-62
2021/05/05 09:13:51;;;;;;;4.97;2.20;;;20.80;47.60;;;;;;5015519;28;20034;-62
2021/05/05 09:16:30;;;;;;;4.07;2.33;;;20.80;47.50;;;;;;5021046;28;20476;-62
2021/05/05 09:19:05;;;;;;;3.53;2.20;;;20.80;48.20;;;;;;5020202;28;20036;-62
2021/05/05 09:21:41;;;;;;;5.47;2.72;;;20.80;47.20;;;;;;5017902;28;20626;-62
2021/05/05 09:24:14;;;;;;;4.25;2.20;;;20.80;47.20;;;;;;5015970;28;20025;-62
2021/05/05 09:26:40;;;;;;;3.00;2.22;;;20.80;47.10;;;;;;5018133;28;20363;-62
2021/05/05 09:29:06;;;;;;;3.88;2.67;;;20.80;47.10;;;;;;5010712;28;20036;-62
2021/05/05 09:31:35;;;;;;;3.78;2.42;;;20.70;47.00;;;;;;5016415;28;20193;-62
2021/05/05 09:34:01;;;;;;;6.10;2.70;;;20.70;47.00;;;;;;5015981;28;20041;-63
2021/05/05 09:36:27;;;;;;;5.90;2.50;;;20.60;47.20;;;;;;5014780;28;20037;-62
2021/05/05 09:38:53;;;;;;;4.18;2.33;;;20.60;47.30;;;;;;5015828;28;20034;-63
2021/05/05 09:41:23;;;;;;;5.65;2.40;;;20.60;47.40;;;;;;5019147;28;20041;-62
2021/05/05 09:43:50;;;;;;;4.78;2.65;;;20.60;47.50;;;;;;5019386;28;20501;-62
2021/05/05 09:46:42;;;;;;;3.38;2.60;;;20.60;47.40;;;;;;5018745;28;20040;-62
2021/05/05 09:49:16;;;;;;;;;;;20.60;47.30;;;;;;5018806;28;20032;-63
2021/05/05 09:51:58;;;;;;;4.72;2.40;;;20.60;47.40;;;;;;5019013;28;19970;-62
2021/05/05 09:54:28;;;;;;;6.03;2.65;;;20.60;47.20;;;;;;5012517;28;20041;-63
2021/05/05 09:56:54;;;;;;;15.98;3.42;;;20.60;47.10;;;;;;5021315;28;20401;-62
2021/05/05 09:59:22;;;;;;;7.63;3.03;;;20.70;46.80;;;;;;5017957;28;20227;-63
2021/05/05 10:01:59;;;;;;;7.43;2.63;;;20.70;46.70;;;;;;5018437;28;20485;-63
2021/05/05 10:04:25;;;;;;;4.78;2.35;;;20.70;47.30;;;;;;5015030;28;20029;-62
2021/05/05 10:07:00;;;;;;;3.25;2.45;;;20.80;46.90;;;;;;5015971;28;20049;-63
2021/05/05 10:09:27;;;;;;;5.00;2.60;;;20.80;46.60;;;;;;5019782;28;20025;-62
2021/05/05 10:11:53;;;;;;;4.07;2.40;;;20.80;46.60;;;;;;5016496;28;20120;-63
2021/05/05 10:14:20;;;;;;;2.78;2.38;;;20.80;46.70;;;;;;5014980;28;20092;-63
2021/05/05 10:16:55;;;;;;;2.78;1.95;;;20.80;46.70;;;;;;5015785;28;20036;-63
2021/05/05 10:19:26;;;;;;;3.95;2.30;;;20.90;46.90;;;;;;5020930;28;20043;-63
2021/05/05 10:22:03;;;;;;;4.53;2.55;;;20.90;46.70;;;;;;5017552;28;20045;-63
2021/05/05 10:24:35;;;;;;;5.50;2.78;;;21.00;46.80;;;;;;5015384;28;20029;-63
2021/05/05 10:27:01;;;;;;;5.43;2.35;;;21.00;46.80;;;;;;5014959;28;20021;-63
2021/05/05 10:29:30;;;;;;;5.97;2.60;;;21.00;47.20;;;;;;5012771;28;20398;-63
2021/05/05 10:32:04;;;;;;;3.13;2.33;;;21.10;47.10;;;;;;5020345;28;20042;-63
2021/05/05 10:34:31;;;;;;;5.82;2.55;;;21.10;47.00;;;;;;5012416;28;20367;-63
2021/05/05 10:36:59;;;;;;;5.18;2.30;;;21.20;46.80;;;;;;5013860;28;20091;-62
2021/05/05 10:39:26;;;;;;;4.85;2.50;;;21.20;46.80;;;;;;5014177;28;20030;-63
2021/05/05 10:42:01;;;;;;;6.97;2.33;;;21.30;46.70;;;;;;5013746;28;20034;-62
2021/05/05 10:44:43;;;;;;;4.10;2.58;;;21.30;46.50;;;;;;5010878;28;20490;-62
2021/05/05 10:47:34;;;;;;;3.83;2.47;;;21.20;46.10;;;;;;5011771;28;20033;-62
2021/05/05 10:52:54;;;;;;;11.35;2.38;;;21.20;46.70;;;;;;5014000;28;20406;-62
2021/05/05 10:55:35;;;;;;;4.05;2.30;;;21.30;46.60;;;;;;5012724;28;20018;-62
2021/05/05 10:58:12;;;;;;;3.90;2.22;;;21.40;46.50;;;;;;4994495;28;20319;-61
2021/05/05 11:00:54;;;;;;;5.45;2.45;;;21.40;46.30;;;;;;5020104;28;20037;-63
2021/05/05 11:03:47;;;;;;;3.88;2.28;;;21.40;46.40;;;;;;5014998;28;20033;-62
2021/05/05 11:06:32;;;;;;;3.03;2.35;;;21.50;46.60;;;;;;5015085;28;20018;-62
2021/05/05 11:09:10;;;;;;;4.60;2.80;;;21.60;46.60;;;;;;5023757;28;20493;-62
2021/05/05 11:11:56;;;;;;;9.82;2.30;;;21.70;46.60;;;;;;5020517;28;20404;-62
2021/05/05 11:14:24;;;;;;;3.13;2.10;;;21.70;45.90;;;;;;5015586;28;20048;-62
2021/05/05 11:16:59;;;;;;;3.65;1.83;;;21.60;45.60;;;;;;5020486;28;20523;-62
2021/05/05 11:19:40;;;;;;;2.72;2.40;;;21.60;45.60;;;;;;5018437;28;20035;-63
2021/05/05 11:22:09;;;;;;;2.38;2.17;;;21.50;46.00;;;;;;5020704;28;20033;-63
2021/05/05 11:24:37;;;;;;;2.08;1.95;;;21.50;46.00;;;;;;5019891;28;20490;-63
2021/05/05 11:27:11;;;;;;;6.35;2.20;;;21.50;45.90;;;;;;5018078;28;20148;-63
2021/05/05 11:29:42;;;;;;;3.63;2.20;;;21.50;46.00;;;;;;5008897;28;20030;-63
2021/05/05 11:32:24;;;;;;;4.25;2.05;;;21.50;45.60;;;;;;5011139;28;20029;-63
2021/05/05 11:34:51;;;;;;;2.40;2.13;;;21.60;45.70;;;;;;5014238;28;20041;-62
2021/05/05 11:37:20;;;;;;;5.20;2.50;;;21.60;45.50;;;;;;5018221;28;20038;-63
2021/05/05 11:39:56;;;;;;;3.38;2.35;;;21.50;45.30;;;;;;5013291;28;20033;-63
2021/05/05 11:42:28;;;;;;;4.28;2.38;;;21.60;45.20;;;;;;5017889;28;20436;-63
2021/05/05 11:44:59;;;;;;;6.82;2.85;;;21.50;45.30;;;;;;5019251;28;20385;-63
2021/05/05 11:47:26;;;;;;;4.65;3.10;;;21.60;45.50;;;;;;5021326;28;20029;-63
2021/05/05 11:50:01;;;;;;;5.78;3.22;;;21.60;45.50;;;;;;5017838;28;20128;-63
2021/05/05 11:52:29;;;;;;;5.88;3.28;;;21.60;45.40;;;;;;5020665;28;20056;-63
2021/05/05 11:54:59;;;;;;;3.00;2.10;;;21.60;45.50;;;;;;5013963;28;20327;-63
2021/05/05 11:57:26;;;;;;;4.75;2.75;;;21.60;45.40;;;;;;5015425;28;20095;-63
2021/05/05 11:59:53;;;;;;;5.30;2.30;;;21.60;45.30;;;;;;5018345;28;20040;-63
2021/05/05 12:02:20;;;;;;;4.22;2.38;;;21.60;45.20;;;;;;5018499;28;21253;-63
2021/05/05 12:04:47;;;;;;;2.40;2.17;;;21.60;45.30;;;;;;5019879;28;20044;-63
2021/05/05 12:07:17;;;;;;;4.80;2.25;;;21.60;45.40;;;;;;5018909;28;20026;-63
2021/05/05 12:09:44;;;;;;;2.42;2.15;;;21.60;45.40;;;;;;5018089;28;20816;-63
2021/05/05 12:12:19;;;;;;;4.57;2.30;;;21.60;45.50;;;;;;5018325;28;20033;-63
2021/05/05 12:14:50;;;;;;;6.82;2.38;;;21.70;45.50;;;;;;5004357;28;20030;-63
2021/05/05 12:17:32;;;;;;;4.78;1.98;;;21.70;45.50;;;;;;5013491;28;20042;-63
2021/05/05 12:20:10;;;;;;;4.20;2.55;;;21.70;45.30;;;;;;5019389;28;20037;-62
2021/05/05 12:22:49;;;;;;;4.72;2.05;;;21.60;45.20;;;;;;5020960;28;20029;-63
2021/05/05 12:25:24;;;;;;;3.00;2.05;;;21.50;45.30;;;;;;5015242;28;20041;-62
2021/05/05 12:28:00;;;;;;;3.95;2.03;;;21.40;45.40;;;;;;5014451;28;20032;-63
2021/05/05 12:30:39;;;;;;;3.20;2.40;;;21.30;45.40;;;;;;5020329;28;20117;-63
2021/05/05 12:33:05;;;;;;;4.47;2.17;;;21.30;45.90;;;;;;5011589;28;20034;-63
2021/05/05 12:35:33;;;;;;;2.85;2.20;;;21.30;45.60;;;;;;5016969;28;20075;-63
2021/05/05 12:38:03;;;;;;;2.58;2.20;;;21.30;45.70;;;;;;5014529;28;20480;-62
2021/05/05 12:40:29;;;;;;;5.40;2.45;;;21.40;45.70;;;;;;5014872;28;20022;-63
2021/05/05 12:43:09;;;;;;;4.13;2.58;;;21.40;45.70;;;;;;5019311;28;20045;-63
2021/05/05 12:45:35;;;;;;;6.18;2.30;;;21.40;45.70;;;;;;5013918;28;20457;-63
2021/05/05 12:48:01;;;;;;;2.42;2.00;;;21.40;45.30;;;;;;5019262;28;20037;-63
2021/05/05 12:50:40;;;;;;;6.63;2.50;;;21.40;45.20;;;;;;5017159;28;20034;-63
2021/05/05 12:53:06;;;;;;;4.85;2.60;;;21.30;45.20;;;;;;5012884;28;20516;-63
2021/05/05 12:55:34;;;;;;;4.70;2.30;;;21.30;45.30;;;;;;5002186;28;20056;-63
2021/05/05 12:58:07;;;;;;;7.45;2.20;;;21.30;45.60;;;;;;5009718;28;20103;-63